Airdrie, Canada
Current Conditions -  °F | °C
As of 6:00 PM on Tuesday 21 Oct 2014 (Local Time) from CYYC Reporting Station
Broken Clouds Broken Clouds  
Wind Chill: 57°   Ceiling: 30000
Heat Index: 57°   Visibility: 40mi
Dew Point: 28°   Wind: 7mph
Humidity: 33%   Direction: 290°WNW
Pressure: 29.71"   Gusts: NA
Location:  51.29°N, 114.01°W
Report Text: CYYC 220000Z 29006KT 40SM FEW060 SCT190 BKN300 14/M02 A2971 RMK CU1AC3CI4 CU TR SLP075 DENSITY ALT 4500FT
Loading
Personal Weather Stations






























Interactive Weather Map
Tropical Storm Tracking
New forecast layout! Learn more

10-Day Weather Forecast

Advertisements
Track Severe Weather on mobile